sensor_id;sensor_type;location;lat;lon;timestamp;P1;durP1;ratioP1;P2;durP2;ratioP2
21215;SDS011;10765;50.954;5.322;2022-10-15T00:01:13;19.27;;;17.57;;
21215;SDS011;10765;50.954;5.322;2022-10-15T00:03:42;18.70;;;17.00;;
21215;SDS011;10765;50.954;5.322;2022-10-15T00:06:10;18.80;;;17.17;;
21215;SDS011;10765;50.954;5.322;2022-10-15T00:08:39;19.10;;;17.40;;
21215;SDS011;10765;50.954;5.322;2022-10-15T00:11:08;17.37;;;15.87;;
21215;SDS011;10765;50.954;5.322;2022-10-15T00:13:37;18.90;;;17.27;;
21215;SDS011;10765;50.954;5.322;2022-10-15T00:16:06;19.17;;;17.37;;
21215;SDS011;10765;50.954;5.322;2022-10-15T00:18:34;19.33;;;17.53;;
21215;SDS011;10765;50.954;5.322;2022-10-15T00:21:01;18.53;;;16.90;;
21215;SDS011;10765;50.954;5.322;2022-10-15T00:23:31;20.40;;;18.43;;
21215;SDS011;10765;50.954;5.322;2022-10-15T00:26:02;21.60;;;19.60;;
21215;SDS011;10765;50.954;5.322;2022-10-15T00:28:32;21.67;;;19.53;;
21215;SDS011;10765;50.954;5.322;2022-10-15T00:30:59;22.27;;;20.07;;
21215;SDS011;10765;50.954;5.322;2022-10-15T00:33:30;24.10;;;21.70;;
21215;SDS011;10765;50.954;5.322;2022-10-15T00:36:01;22.10;;;19.93;;
21215;SDS011;10765;50.954;5.322;2022-10-15T00:38:30;23.97;;;21.70;;
21215;SDS011;10765;50.954;5.322;2022-10-15T00:40:57;21.07;;;19.00;;
21215;SDS011;10765;50.954;5.322;2022-10-15T00:43:36;19.47;;;17.87;;
21215;SDS011;10765;50.954;5.322;2022-10-15T00:46:05;22.40;;;20.20;;
21215;SDS011;10765;50.954;5.322;2022-10-15T00:48:42;19.63;;;18.03;;
21215;SDS011;10765;50.954;5.322;2022-10-15T00:51:11;19.30;;;17.60;;
21215;SDS011;10765;50.954;5.322;2022-10-15T00:53:38;23.33;;;21.07;;
21215;SDS011;10765;50.954;5.322;2022-10-15T00:56:05;19.03;;;17.37;;
21215;SDS011;10765;50.954;5.322;2022-10-15T00:58:32;20.43;;;18.73;;
21215;SDS011;10765;50.954;5.322;2022-10-15T01:01:01;21.13;;;19.23;;
21215;SDS011;10765;50.954;5.322;2022-10-15T01:03:29;19.07;;;17.47;;
21215;SDS011;10765;50.954;5.322;2022-10-15T01:05:56;20.00;;;18.30;;
21215;SDS011;10765;50.954;5.322;2022-10-15T01:08:23;20.40;;;18.50;;
21215;SDS011;10765;50.954;5.322;2022-10-15T01:10:52;21.63;;;19.63;;
21215;SDS011;10765;50.954;5.322;2022-10-15T01:13:27;20.23;;;18.53;;
21215;SDS011;10765;50.954;5.322;2022-10-15T01:16:02;19.97;;;18.07;;
21215;SDS011;10765;50.954;5.322;2022-10-15T01:18:34;20.03;;;18.23;;
21215;SDS011;10765;50.954;5.322;2022-10-15T01:21:08;21.00;;;19.00;;
21215;SDS011;10765;50.954;5.322;2022-10-15T01:27:02;21.10;;;19.20;;
21215;SDS011;10765;50.954;5.322;2022-10-15T01:32:47;23.20;;;21.07;;
21215;SDS011;10765;50.954;5.322;2022-10-15T01:35:30;24.73;;;22.23;;
21215;SDS011;10765;50.954;5.322;2022-10-15T01:38:06;26.13;;;23.57;;
21215;SDS011;10765;50.954;5.322;2022-10-15T01:40:42;26.80;;;24.30;;
21215;SDS011;10765;50.954;5.322;2022-10-15T01:43:14;27.40;;;24.67;;
21215;SDS011;10765;50.954;5.322;2022-10-15T01:45:48;27.33;;;24.60;;
21215;SDS011;10765;50.954;5.322;2022-10-15T01:48:18;26.07;;;23.57;;
21215;SDS011;10765;50.954;5.322;2022-10-15T01:50:48;27.30;;;24.53;;
21215;SDS011;10765;50.954;5.322;2022-10-15T01:53:20;27.90;;;25.30;;
21215;SDS011;10765;50.954;5.322;2022-10-15T01:55:50;28.73;;;26.13;;
21215;SDS011;10765;50.954;5.322;2022-10-15T01:58:20;28.63;;;25.87;;
21215;SDS011;10765;50.954;5.322;2022-10-15T02:00:50;29.57;;;26.87;;
21215;SDS011;10765;50.954;5.322;2022-10-15T02:03:18;31.27;;;26.73;;
21215;SDS011;10765;50.954;5.322;2022-10-15T02:05:46;28.50;;;25.87;;
21215;SDS011;10765;50.954;5.322;2022-10-15T02:08:18;29.60;;;26.60;;
21215;SDS011;10765;50.954;5.322;2022-10-15T02:10:55;31.83;;;28.70;;
21215;SDS011;10765;50.954;5.322;2022-10-15T02:13:26;29.70;;;26.80;;
21215;SDS011;10765;50.954;5.322;2022-10-15T02:16:00;31.70;;;28.50;;
21215;SDS011;10765;50.954;5.322;2022-10-15T02:18:36;31.70;;;28.50;;
21215;SDS011;10765;50.954;5.322;2022-10-15T02:21:07;31.83;;;28.60;;
21215;SDS011;10765;50.954;5.322;2022-10-15T02:23:40;31.33;;;28.07;;
21215;SDS011;10765;50.954;5.322;2022-10-15T02:26:12;30.83;;;27.70;;
21215;SDS011;10765;50.954;5.322;2022-10-15T02:28:41;31.13;;;28.00;;
21215;SDS011;10765;50.954;5.322;2022-10-15T02:31:12;29.40;;;26.37;;
21215;SDS011;10765;50.954;5.322;2022-10-15T02:33:41;30.97;;;27.83;;
21215;SDS011;10765;50.954;5.322;2022-10-15T02:36:09;30.03;;;26.97;;
21215;SDS011;10765;50.954;5.322;2022-10-15T02:38:37;28.70;;;25.70;;
21215;SDS011;10765;50.954;5.322;2022-10-15T02:41:07;31.07;;;27.87;;
21215;SDS011;10765;50.954;5.322;2022-10-15T02:43:36;30.33;;;27.43;;
21215;SDS011;10765;50.954;5.322;2022-10-15T02:46:04;30.37;;;27.17;;
21215;SDS011;10765;50.954;5.322;2022-10-15T02:48:35;29.47;;;26.57;;
21215;SDS011;10765;50.954;5.322;2022-10-15T02:51:02;27.80;;;25.13;;
21215;SDS011;10765;50.954;5.322;2022-10-15T02:53:29;29.50;;;26.33;;
21215;SDS011;10765;50.954;5.322;2022-10-15T02:55:56;28.77;;;25.80;;
21215;SDS011;10765;50.954;5.322;2022-10-15T02:58:23;28.73;;;25.63;;
21215;SDS011;10765;50.954;5.322;2022-10-15T03:00:50;28.10;;;25.23;;
21215;SDS011;10765;50.954;5.322;2022-10-15T03:03:17;28.73;;;25.77;;
21215;SDS011;10765;50.954;5.322;2022-10-15T03:05:46;26.03;;;23.47;;
21215;SDS011;10765;50.954;5.322;2022-10-15T03:08:13;28.20;;;25.30;;
21215;SDS011;10765;50.954;5.322;2022-10-15T03:10:39;27.73;;;24.83;;
21215;SDS011;10765;50.954;5.322;2022-10-15T03:13:06;27.47;;;24.63;;
21215;SDS011;10765;50.954;5.322;2022-10-15T03:15:33;27.60;;;24.70;;
21215;SDS011;10765;50.954;5.322;2022-10-15T03:18:02;25.00;;;22.50;;
21215;SDS011;10765;50.954;5.322;2022-10-15T03:20:29;25.17;;;22.63;;
21215;SDS011;10765;50.954;5.322;2022-10-15T03:22:57;26.73;;;23.87;;
21215;SDS011;10765;50.954;5.322;2022-10-15T03:25:24;26.40;;;23.70;;
21215;SDS011;10765;50.954;5.322;2022-10-15T03:27:51;29.10;;;25.67;;
21215;SDS011;10765;50.954;5.322;2022-10-15T03:30:18;29.77;;;24.90;;
21215;SDS011;10765;50.954;5.322;2022-10-15T03:32:45;26.23;;;23.50;;
21215;SDS011;10765;50.954;5.322;2022-10-15T03:35:12;27.27;;;24.33;;
21215;SDS011;10765;50.954;5.322;2022-10-15T03:37:39;26.03;;;23.37;;
21215;SDS011;10765;50.954;5.322;2022-10-15T03:40:08;26.43;;;23.60;;
21215;SDS011;10765;50.954;5.322;2022-10-15T03:42:35;26.70;;;23.80;;
21215;SDS011;10765;50.954;5.322;2022-10-15T03:45:02;26.67;;;22.90;;
21215;SDS011;10765;50.954;5.322;2022-10-15T03:47:30;25.37;;;22.73;;
21215;SDS011;10765;50.954;5.322;2022-10-15T03:49:56;27.30;;;23.50;;
21215;SDS011;10765;50.954;5.322;2022-10-15T03:52:23;25.47;;;22.77;;
21215;SDS011;10765;50.954;5.322;2022-10-15T03:54:50;28.03;;;23.37;;
21215;SDS011;10765;50.954;5.322;2022-10-15T03:57:18;26.73;;;23.30;;
21215;SDS011;10765;50.954;5.322;2022-10-15T03:59:45;29.67;;;25.10;;
21215;SDS011;10765;50.954;5.322;2022-10-15T04:02:12;30.50;;;24.97;;
21215;SDS011;10765;50.954;5.322;2022-10-15T04:04:39;27.73;;;24.73;;
21215;SDS011;10765;50.954;5.322;2022-10-15T04:07:06;32.80;;;25.50;;
21215;SDS011;10765;50.954;5.322;2022-10-15T04:09:33;31.53;;;24.70;;
21215;SDS011;10765;50.954;5.322;2022-10-15T04:12:00;29.00;;;24.70;;
21215;SDS011;10765;50.954;5.322;2022-10-15T04:14:28;32.13;;;25.57;;
21215;SDS011;10765;50.954;5.322;2022-10-15T04:16:55;27.93;;;24.20;;
21215;SDS011;10765;50.954;5.322;2022-10-15T04:19:23;31.40;;;25.00;;
21215;SDS011;10765;50.954;5.322;2022-10-15T04:21:50;30.20;;;23.83;;
21215;SDS011;10765;50.954;5.322;2022-10-15T04:24:16;33.70;;;24.80;;
21215;SDS011;10765;50.954;5.322;2022-10-15T04:26:43;34.97;;;26.40;;
21215;SDS011;10765;50.954;5.322;2022-10-15T04:29:10;37.43;;;27.33;;
21215;SDS011;10765;50.954;5.322;2022-10-15T04:31:38;39.20;;;27.30;;
21215;SDS011;10765;50.954;5.322;2022-10-15T04:34:05;39.60;;;27.97;;
21215;SDS011;10765;50.954;5.322;2022-10-15T04:36:32;35.43;;;26.33;;
21215;SDS011;10765;50.954;5.322;2022-10-15T04:38:59;42.80;;;28.63;;
21215;SDS011;10765;50.954;5.322;2022-10-15T04:41:27;41.00;;;28.67;;
21215;SDS011;10765;50.954;5.322;2022-10-15T04:43:54;39.80;;;27.90;;
21215;SDS011;10765;50.954;5.322;2022-10-15T04:46:21;40.23;;;28.57;;
21215;SDS011;10765;50.954;5.322;2022-10-15T04:48:51;36.57;;;26.33;;
21215;SDS011;10765;50.954;5.322;2022-10-15T04:51:21;39.07;;;27.83;;
21215;SDS011;10765;50.954;5.322;2022-10-15T04:53:48;40.07;;;28.30;;
21215;SDS011;10765;50.954;5.322;2022-10-15T04:56:17;41.40;;;28.53;;
21215;SDS011;10765;50.954;5.322;2022-10-15T04:58:45;45.37;;;29.13;;
21215;SDS011;10765;50.954;5.322;2022-10-15T05:01:14;37.20;;;26.87;;
21215;SDS011;10765;50.954;5.322;2022-10-15T05:03:43;42.33;;;28.03;;
21215;SDS011;10765;50.954;5.322;2022-10-15T05:06:13;47.73;;;28.87;;
21215;SDS011;10765;50.954;5.322;2022-10-15T05:08:42;38.57;;;26.70;;
21215;SDS011;10765;50.954;5.322;2022-10-15T05:11:10;40.43;;;27.73;;
21215;SDS011;10765;50.954;5.322;2022-10-15T05:13:38;43.83;;;29.13;;
21215;SDS011;10765;50.954;5.322;2022-10-15T05:16:10;33.97;;;24.83;;
21215;SDS011;10765;50.954;5.322;2022-10-15T05:18:38;46.43;;;29.07;;
21215;SDS011;10765;50.954;5.322;2022-10-15T05:21:05;56.60;;;29.87;;
21215;SDS011;10765;50.954;5.322;2022-10-15T05:23:34;44.53;;;28.80;;
21215;SDS011;10765;50.954;5.322;2022-10-15T05:26:03;38.90;;;26.50;;
21215;SDS011;10765;50.954;5.322;2022-10-15T05:28:31;42.30;;;28.53;;
21215;SDS011;10765;50.954;5.322;2022-10-15T05:31:02;40.10;;;27.37;;
21215;SDS011;10765;50.954;5.322;2022-10-15T05:33:30;47.00;;;27.67;;
21215;SDS011;10765;50.954;5.322;2022-10-15T05:36:06;36.37;;;25.77;;
21215;SDS011;10765;50.954;5.322;2022-10-15T05:38:35;40.30;;;26.90;;
21215;SDS011;10765;50.954;5.322;2022-10-15T05:41:02;38.93;;;26.20;;
21215;SDS011;10765;50.954;5.322;2022-10-15T05:43:29;38.80;;;27.77;;
21215;SDS011;10765;50.954;5.322;2022-10-15T05:45:56;40.83;;;27.30;;
21215;SDS011;10765;50.954;5.322;2022-10-15T05:48:23;39.27;;;26.10;;
21215;SDS011;10765;50.954;5.322;2022-10-15T05:50:50;41.23;;;26.63;;
21215;SDS011;10765;50.954;5.322;2022-10-15T05:53:17;35.93;;;25.47;;
21215;SDS011;10765;50.954;5.322;2022-10-15T05:55:47;34.20;;;24.07;;
21215;SDS011;10765;50.954;5.322;2022-10-15T05:58:17;35.13;;;24.37;;
21215;SDS011;10765;50.954;5.322;2022-10-15T06:00:44;31.33;;;23.00;;
21215;SDS011;10765;50.954;5.322;2022-10-15T06:03:11;28.73;;;21.40;;
21215;SDS011;10765;50.954;5.322;2022-10-15T06:05:39;25.80;;;19.50;;
21215;SDS011;10765;50.954;5.322;2022-10-15T06:08:06;24.47;;;17.23;;
21215;SDS011;10765;50.954;5.322;2022-10-15T06:10:34;26.17;;;18.17;;
21215;SDS011;10765;50.954;5.322;2022-10-15T06:13:03;20.90;;;16.60;;
21215;SDS011;10765;50.954;5.322;2022-10-15T06:15:30;22.50;;;16.37;;
21215;SDS011;10765;50.954;5.322;2022-10-15T06:17:57;17.87;;;14.40;;
21215;SDS011;10765;50.954;5.322;2022-10-15T06:20:25;18.00;;;13.70;;
21215;SDS011;10765;50.954;5.322;2022-10-15T06:22:55;15.33;;;12.60;;
21215;SDS011;10765;50.954;5.322;2022-10-15T06:25:22;12.77;;;10.87;;
21215;SDS011;10765;50.954;5.322;2022-10-15T06:27:49;16.40;;;11.40;;
21215;SDS011;10765;50.954;5.322;2022-10-15T06:30:17;12.27;;;10.27;;
21215;SDS011;10765;50.954;5.322;2022-10-15T06:32:48;13.43;;;10.13;;
21215;SDS011;10765;50.954;5.322;2022-10-15T06:35:15;12.13;;;9.90;;
21215;SDS011;10765;50.954;5.322;2022-10-15T06:37:43;10.83;;;9.13;;
21215;SDS011;10765;50.954;5.322;2022-10-15T06:40:10;11.93;;;10.10;;
21215;SDS011;10765;50.954;5.322;2022-10-15T06:42:38;12.60;;;10.27;;
21215;SDS011;10765;50.954;5.322;2022-10-15T06:45:05;10.73;;;9.60;;
21215;SDS011;10765;50.954;5.322;2022-10-15T06:47:35;10.50;;;9.33;;
21215;SDS011;10765;50.954;5.322;2022-10-15T06:50:03;11.40;;;9.40;;
21215;SDS011;10765;50.954;5.322;2022-10-15T06:52:31;13.30;;;8.83;;
21215;SDS011;10765;50.954;5.322;2022-10-15T06:54:59;9.90;;;8.03;;
21215;SDS011;10765;50.954;5.322;2022-10-15T06:57:26;10.80;;;8.50;;
21215;SDS011;10765;50.954;5.322;2022-10-15T06:59:53;9.10;;;7.63;;
21215;SDS011;10765;50.954;5.322;2022-10-15T07:02:20;8.23;;;7.03;;
21215;SDS011;10765;50.954;5.322;2022-10-15T07:04:50;7.77;;;6.97;;
21215;SDS011;10765;50.954;5.322;2022-10-15T07:07:17;8.93;;;7.83;;
21215;SDS011;10765;50.954;5.322;2022-10-15T07:09:44;8.10;;;7.20;;
21215;SDS011;10765;50.954;5.322;2022-10-15T07:12:12;7.70;;;6.90;;
21215;SDS011;10765;50.954;5.322;2022-10-15T07:14:40;9.13;;;7.20;;
21215;SDS011;10765;50.954;5.322;2022-10-15T07:17:07;7.90;;;7.10;;
21215;SDS011;10765;50.954;5.322;2022-10-15T07:19:34;7.83;;;7.03;;
21215;SDS011;10765;50.954;5.322;2022-10-15T07:22:02;7.87;;;6.43;;
21215;SDS011;10765;50.954;5.322;2022-10-15T07:24:29;8.27;;;6.77;;
21215;SDS011;10765;50.954;5.322;2022-10-15T07:26:56;7.10;;;6.40;;
21215;SDS011;10765;50.954;5.322;2022-10-15T07:29:23;6.83;;;6.00;;
21215;SDS011;10765;50.954;5.322;2022-10-15T07:31:49;7.80;;;6.03;;
21215;SDS011;10765;50.954;5.322;2022-10-15T07:34:16;6.33;;;5.73;;
21215;SDS011;10765;50.954;5.322;2022-10-15T07:36:43;5.97;;;5.37;;
21215;SDS011;10765;50.954;5.322;2022-10-15T07:39:12;6.27;;;5.43;;
21215;SDS011;10765;50.954;5.322;2022-10-15T07:41:39;5.87;;;5.23;;
21215;SDS011;10765;50.954;5.322;2022-10-15T07:44:05;6.00;;;5.40;;
21215;SDS011;10765;50.954;5.322;2022-10-15T07:46:32;5.80;;;5.17;;
21215;SDS011;10765;50.954;5.322;2022-10-15T07:48:59;6.13;;;5.00;;
21215;SDS011;10765;50.954;5.322;2022-10-15T07:51:26;6.97;;;4.83;;
21215;SDS011;10765;50.954;5.322;2022-10-15T07:53:53;5.37;;;4.87;;
21215;SDS011;10765;50.954;5.322;2022-10-15T07:56:22;4.90;;;4.50;;
21215;SDS011;10765;50.954;5.322;2022-10-15T07:58:49;5.30;;;4.80;;
21215;SDS011;10765;50.954;5.322;2022-10-15T08:01:17;5.43;;;4.20;;
21215;SDS011;10765;50.954;5.322;2022-10-15T08:03:45;4.70;;;4.20;;
21215;SDS011;10765;50.954;5.322;2022-10-15T08:06:12;5.53;;;4.13;;
21215;SDS011;10765;50.954;5.322;2022-10-15T08:08:39;4.30;;;3.90;;
21215;SDS011;10765;50.954;5.322;2022-10-15T08:11:06;5.07;;;4.20;;
21215;SDS011;10765;50.954;5.322;2022-10-15T08:13:34;4.20;;;3.80;;
21215;SDS011;10765;50.954;5.322;2022-10-15T08:16:03;3.80;;;2.97;;
21215;SDS011;10765;50.954;5.322;2022-10-15T08:18:30;3.47;;;3.17;;
21215;SDS011;10765;50.954;5.322;2022-10-15T08:20:57;3.20;;;2.87;;
21215;SDS011;10765;50.954;5.322;2022-10-15T08:23:25;2.97;;;2.70;;
21215;SDS011;10765;50.954;5.322;2022-10-15T08:25:52;3.33;;;3.00;;
21215;SDS011;10765;50.954;5.322;2022-10-15T08:28:19;2.93;;;2.70;;
21215;SDS011;10765;50.954;5.322;2022-10-15T08:30:47;4.13;;;2.63;;
21215;SDS011;10765;50.954;5.322;2022-10-15T08:33:14;3.40;;;2.43;;
21215;SDS011;10765;50.954;5.322;2022-10-15T08:35:41;3.07;;;2.63;;
21215;SDS011;10765;50.954;5.322;2022-10-15T08:38:09;3.43;;;2.23;;
21215;SDS011;10765;50.954;5.322;2022-10-15T08:40:36;2.53;;;2.00;;
21215;SDS011;10765;50.954;5.322;2022-10-15T08:43:05;2.10;;;1.90;;
21215;SDS011;10765;50.954;5.322;2022-10-15T08:45:33;1.97;;;1.80;;
21215;SDS011;10765;50.954;5.322;2022-10-15T08:48:09;1.77;;;1.67;;
21215;SDS011;10765;50.954;5.322;2022-10-15T08:50:39;4.17;;;2.03;;
21215;SDS011;10765;50.954;5.322;2022-10-15T08:53:10;1.63;;;1.53;;
21215;SDS011;10765;50.954;5.322;2022-10-15T08:55:39;1.67;;;1.57;;
21215;SDS011;10765;50.954;5.322;2022-10-15T08:58:11;1.60;;;1.40;;
21215;SDS011;10765;50.954;5.322;2022-10-15T09:00:41;1.50;;;1.10;;
21215;SDS011;10765;50.954;5.322;2022-10-15T09:03:22;2.63;;;1.10;;
21215;SDS011;10765;50.954;5.322;2022-10-15T09:06:00;0.80;;;0.80;;
21215;SDS011;10765;50.954;5.322;2022-10-15T09:08:34;2.57;;;0.83;;
21215;SDS011;10765;50.954;5.322;2022-10-15T09:11:06;0.70;;;0.70;;
21215;SDS011;10765;50.954;5.322;2022-10-15T09:13:42;1.30;;;0.80;;
21215;SDS011;10765;50.954;5.322;2022-10-15T09:16:11;2.57;;;0.60;;
21215;SDS011;10765;50.954;5.322;2022-10-15T09:18:43;0.67;;;0.50;;
21215;SDS011;10765;50.954;5.322;2022-10-15T09:21:12;2.10;;;0.67;;
21215;SDS011;10765;50.954;5.322;2022-10-15T09:23:40;0.60;;;0.60;;
21215;SDS011;10765;50.954;5.322;2022-10-15T09:26:12;1.23;;;0.60;;
21215;SDS011;10765;50.954;5.322;2022-10-15T09:28:51;1.40;;;0.80;;
21215;SDS011;10765;50.954;5.322;2022-10-15T09:31:27;0.50;;;0.50;;
21215;SDS011;10765;50.954;5.322;2022-10-15T09:34:01;0.60;;;0.50;;
21215;SDS011;10765;50.954;5.322;2022-10-15T09:36:38;0.53;;;0.53;;
21215;SDS011;10765;50.954;5.322;2022-10-15T09:39:13;0.97;;;0.70;;
21215;SDS011;10765;50.954;5.322;2022-10-15T09:41:57;0.60;;;0.50;;
21215;SDS011;10765;50.954;5.322;2022-10-15T09:44:33;1.63;;;0.67;;
21215;SDS011;10765;50.954;5.322;2022-10-15T09:47:09;0.87;;;0.50;;
21215;SDS011;10765;50.954;5.322;2022-10-15T09:49:42;0.93;;;0.40;;
21215;SDS011;10765;50.954;5.322;2022-10-15T09:52:10;0.30;;;0.30;;
21215;SDS011;10765;50.954;5.322;2022-10-15T09:54:48;0.47;;;0.20;;
21215;SDS011;10765;50.954;5.322;2022-10-15T09:57:23;0.30;;;0.30;;
21215;SDS011;10765;50.954;5.322;2022-10-15T09:59:52;1.13;;;0.30;;
21215;SDS011;10765;50.954;5.322;2022-10-15T10:02:20;0.67;;;0.33;;
21215;SDS011;10765;50.954;5.322;2022-10-15T10:04:49;0.27;;;0.27;;
21215;SDS011;10765;50.954;5.322;2022-10-15T10:07:26;0.90;;;0.30;;
21215;SDS011;10765;50.954;5.322;2022-10-15T10:09:59;1.00;;;0.30;;
21215;SDS011;10765;50.954;5.322;2022-10-15T10:12:29;1.03;;;0.30;;
21215;SDS011;10765;50.954;5.322;2022-10-15T10:14:59;0.47;;;0.37;;
21215;SDS011;10765;50.954;5.322;2022-10-15T10:17:30;1.93;;;0.20;;
21215;SDS011;10765;50.954;5.322;2022-10-15T10:20:15;0.20;;;0.20;;
21215;SDS011;10765;50.954;5.322;2022-10-15T10:22:45;1.30;;;0.30;;
21215;SDS011;10765;50.954;5.322;2022-10-15T10:25:26;1.03;;;0.40;;
21215;SDS011;10765;50.954;5.322;2022-10-15T10:28:02;0.30;;;0.30;;
21215;SDS011;10765;50.954;5.322;2022-10-15T10:30:32;1.13;;;0.30;;
21215;SDS011;10765;50.954;5.322;2022-10-15T10:33:06;0.20;;;0.20;;
21215;SDS011;10765;50.954;5.322;2022-10-15T10:35:44;3.73;;;0.50;;
21215;SDS011;10765;50.954;5.322;2022-10-15T10:38:20;1.57;;;0.30;;
21215;SDS011;10765;50.954;5.322;2022-10-15T10:40:50;0.30;;;0.30;;
21215;SDS011;10765;50.954;5.322;2022-10-15T10:43:18;0.60;;;0.20;;
21215;SDS011;10765;50.954;5.322;2022-10-15T10:45:53;0.50;;;0.30;;
21215;SDS011;10765;50.954;5.322;2022-10-15T10:48:22;2.73;;;0.37;;
21215;SDS011;10765;50.954;5.322;2022-10-15T10:51:05;2.43;;;0.30;;
21215;SDS011;10765;50.954;5.322;2022-10-15T10:53:43;0.87;;;0.30;;
21215;SDS011;10765;50.954;5.322;2022-10-15T10:56:13;0.97;;;0.47;;
21215;SDS011;10765;50.954;5.322;2022-10-15T10:58:45;0.63;;;0.47;;
21215;SDS011;10765;50.954;5.322;2022-10-15T11:01:13;0.30;;;0.30;;
21215;SDS011;10765;50.954;5.322;2022-10-15T11:03:41;0.33;;;0.33;;
21215;SDS011;10765;50.954;5.322;2022-10-15T11:06:25;1.03;;;0.40;;
21215;SDS011;10765;50.954;5.322;2022-10-15T11:09:11;0.40;;;0.30;;
21215;SDS011;10765;50.954;5.322;2022-10-15T11:11:48;1.70;;;0.30;;
21215;SDS011;10765;50.954;5.322;2022-10-15T11:14:27;0.77;;;0.43;;
21215;SDS011;10765;50.954;5.322;2022-10-15T11:17:00;1.43;;;0.47;;
21215;SDS011;10765;50.954;5.322;2022-10-15T11:19:37;0.80;;;0.40;;
21215;SDS011;10765;50.954;5.322;2022-10-15T11:22:17;0.50;;;0.50;;
21215;SDS011;10765;50.954;5.322;2022-10-15T11:24:58;0.60;;;0.40;;
21215;SDS011;10765;50.954;5.322;2022-10-15T11:27:42;0.50;;;0.50;;
21215;SDS011;10765;50.954;5.322;2022-10-15T11:30:33;0.57;;;0.30;;
21215;SDS011;10765;50.954;5.322;2022-10-15T11:33:11;1.70;;;0.50;;
21215;SDS011;10765;50.954;5.322;2022-10-15T11:35:58;0.50;;;0.50;;
21215;SDS011;10765;50.954;5.322;2022-10-15T11:38:35;1.70;;;0.77;;
21215;SDS011;10765;50.954;5.322;2022-10-15T11:41:13;1.00;;;0.60;;
21215;SDS011;10765;50.954;5.322;2022-10-15T11:43:56;0.57;;;0.57;;
21215;SDS011;10765;50.954;5.322;2022-10-15T11:46:30;1.47;;;0.80;;
21215;SDS011;10765;50.954;5.322;2022-10-15T11:49:09;1.70;;;0.67;;
21215;SDS011;10765;50.954;5.322;2022-10-15T11:51:51;1.70;;;0.80;;
21215;SDS011;10765;50.954;5.322;2022-10-15T11:54:33;0.80;;;0.70;;
21215;SDS011;10765;50.954;5.322;2022-10-15T11:57:02;2.50;;;0.70;;
21215;SDS011;10765;50.954;5.322;2022-10-15T11:59:34;0.90;;;0.70;;
21215;SDS011;10765;50.954;5.322;2022-10-15T12:02:07;1.50;;;0.90;;
21215;SDS011;10765;50.954;5.322;2022-10-15T12:04:39;0.70;;;0.70;;
21215;SDS011;10765;50.954;5.322;2022-10-15T12:07:13;0.60;;;0.60;;
21215;SDS011;10765;50.954;5.322;2022-10-15T12:09:45;1.37;;;0.80;;
21215;SDS011;10765;50.954;5.322;2022-10-15T12:12:17;0.60;;;0.60;;
21215;SDS011;10765;50.954;5.322;2022-10-15T12:15:01;1.20;;;0.80;;
21215;SDS011;10765;50.954;5.322;2022-10-15T12:17:39;0.60;;;0.60;;
21215;SDS011;10765;50.954;5.322;2022-10-15T12:20:14;1.23;;;0.87;;
21215;SDS011;10765;50.954;5.322;2022-10-15T12:22:52;1.63;;;0.80;;
21215;SDS011;10765;50.954;5.322;2022-10-15T12:25:42;1.00;;;0.90;;
21215;SDS011;10765;50.954;5.322;2022-10-15T12:28:12;1.13;;;0.93;;
21215;SDS011;10765;50.954;5.322;2022-10-15T12:30:42;1.27;;;0.70;;
21215;SDS011;10765;50.954;5.322;2022-10-15T12:33:23;0.77;;;0.60;;
21215;SDS011;10765;50.954;5.322;2022-10-15T12:35:57;0.80;;;0.60;;
21215;SDS011;10765;50.954;5.322;2022-10-15T12:38:27;0.73;;;0.70;;
21215;SDS011;10765;50.954;5.322;2022-10-15T12:40:58;2.37;;;0.90;;
21215;SDS011;10765;50.954;5.322;2022-10-15T12:43:27;2.50;;;1.50;;
21215;SDS011;10765;50.954;5.322;2022-10-15T12:45:56;3.30;;;2.50;;
21215;SDS011;10765;50.954;5.322;2022-10-15T12:48:28;3.00;;;2.67;;
21215;SDS011;10765;50.954;5.322;2022-10-15T13:00:35;4.80;;;2.40;;
21215;SDS011;10765;50.954;5.322;2022-10-15T13:03:17;4.00;;;1.83;;
21215;SDS011;10765;50.954;5.322;2022-10-15T13:05:49;2.00;;;1.57;;
21215;SDS011;10765;50.954;5.322;2022-10-15T13:08:18;1.87;;;1.77;;
21215;SDS011;10765;50.954;5.322;2022-10-15T13:10:48;1.60;;;1.50;;
21215;SDS011;10765;50.954;5.322;2022-10-15T13:13:18;1.90;;;1.70;;
21215;SDS011;10765;50.954;5.322;2022-10-15T13:15:51;1.53;;;1.17;;
21215;SDS011;10765;50.954;5.322;2022-10-15T13:18:22;1.53;;;1.10;;
21215;SDS011;10765;50.954;5.322;2022-10-15T13:20:49;1.43;;;1.23;;
21215;SDS011;10765;50.954;5.322;2022-10-15T13:23:21;1.53;;;1.40;;
21215;SDS011;10765;50.954;5.322;2022-10-15T13:25:52;1.53;;;1.27;;
21215;SDS011;10765;50.954;5.322;2022-10-15T13:28:38;1.57;;;1.40;;
21215;SDS011;10765;50.954;5.322;2022-10-15T13:31:11;1.90;;;1.67;;
21215;SDS011;10765;50.954;5.322;2022-10-15T13:33:41;1.50;;;1.30;;
21215;SDS011;10765;50.954;5.322;2022-10-15T13:36:15;2.17;;;1.60;;
21215;SDS011;10765;50.954;5.322;2022-10-15T13:38:50;2.13;;;1.50;;
21215;SDS011;10765;50.954;5.322;2022-10-15T13:41:26;3.30;;;1.60;;
21215;SDS011;10765;50.954;5.322;2022-10-15T13:43:56;2.53;;;1.50;;
21215;SDS011;10765;50.954;5.322;2022-10-15T13:46:27;1.83;;;1.20;;
21215;SDS011;10765;50.954;5.322;2022-10-15T13:48:55;1.90;;;1.57;;
21215;SDS011;10765;50.954;5.322;2022-10-15T13:51:29;2.40;;;1.20;;
21215;SDS011;10765;50.954;5.322;2022-10-15T13:53:59;1.43;;;1.20;;
21215;SDS011;10765;50.954;5.322;2022-10-15T13:56:28;2.30;;;1.30;;
21215;SDS011;10765;50.954;5.322;2022-10-15T13:58:56;0.90;;;0.90;;
21215;SDS011;10765;50.954;5.322;2022-10-15T14:01:27;0.90;;;0.90;;
21215;SDS011;10765;50.954;5.322;2022-10-15T14:03:55;1.27;;;1.00;;
21215;SDS011;10765;50.954;5.322;2022-10-15T14:06:24;1.10;;;0.90;;
21215;SDS011;10765;50.954;5.322;2022-10-15T14:08:53;1.30;;;0.90;;
21215;SDS011;10765;50.954;5.322;2022-10-15T14:11:21;1.17;;;0.80;;
21215;SDS011;10765;50.954;5.322;2022-10-15T14:13:49;2.43;;;1.00;;
21215;SDS011;10765;50.954;5.322;2022-10-15T14:16:18;1.67;;;0.70;;
21215;SDS011;10765;50.954;5.322;2022-10-15T14:18:51;1.53;;;0.70;;
21215;SDS011;10765;50.954;5.322;2022-10-15T14:21:22;2.27;;;0.60;;
21215;SDS011;10765;50.954;5.322;2022-10-15T14:24:01;1.33;;;0.60;;
21215;SDS011;10765;50.954;5.322;2022-10-15T14:26:30;1.90;;;0.97;;
21215;SDS011;10765;50.954;5.322;2022-10-15T14:28:58;0.80;;;0.70;;
21215;SDS011;10765;50.954;5.322;2022-10-15T14:31:30;0.80;;;0.60;;
21215;SDS011;10765;50.954;5.322;2022-10-15T14:34:03;0.87;;;0.60;;
21215;SDS011;10765;50.954;5.322;2022-10-15T14:36:31;2.70;;;0.90;;
21215;SDS011;10765;50.954;5.322;2022-10-15T14:39:20;3.47;;;0.80;;
21215;SDS011;10765;50.954;5.322;2022-10-15T14:41:56;1.20;;;0.67;;
21215;SDS011;10765;50.954;5.322;2022-10-15T14:44:24;1.77;;;1.00;;
21215;SDS011;10765;50.954;5.322;2022-10-15T14:46:57;4.40;;;0.90;;
21215;SDS011;10765;50.954;5.322;2022-10-15T14:49:28;1.50;;;0.50;;
21215;SDS011;10765;50.954;5.322;2022-10-15T14:51:58;2.17;;;0.50;;
21215;SDS011;10765;50.954;5.322;2022-10-15T14:54:33;3.87;;;0.80;;
21215;SDS011;10765;50.954;5.322;2022-10-15T14:57:01;1.87;;;0.83;;
21215;SDS011;10765;50.954;5.322;2022-10-15T14:59:31;1.00;;;0.70;;
21215;SDS011;10765;50.954;5.322;2022-10-15T15:02:01;2.33;;;1.30;;
21215;SDS011;10765;50.954;5.322;2022-10-15T15:04:35;3.20;;;1.20;;
21215;SDS011;10765;50.954;5.322;2022-10-15T15:07:14;2.43;;;1.20;;
21215;SDS011;10765;50.954;5.322;2022-10-15T15:09:45;1.50;;;0.87;;
21215;SDS011;10765;50.954;5.322;2022-10-15T15:12:15;4.10;;;0.90;;